sensor_id;sensor_type;location;lat;lon;timestamp;P1;durP1;ratioP1;P2;durP2;ratioP2
50851;SDS011;43953;45.508;-122.806;2023-10-09T00:00:18;2.25;;;0.80;;
50851;SDS011;43953;45.508;-122.806;2023-10-09T00:01:08;0.73;;;0.70;;
50851;SDS011;43953;45.508;-122.806;2023-10-09T00:02:19;0.70;;;0.60;;
50851;SDS011;43953;45.508;-122.806;2023-10-09T00:02:51;1.30;;;0.70;;
50851;SDS011;43953;45.508;-122.806;2023-10-09T00:03:24;1.40;;;0.70;;
50851;SDS011;43953;45.508;-122.806;2023-10-09T00:03:58;0.80;;;0.80;;
50851;SDS011;43953;45.508;-122.806;2023-10-09T00:04:32;1.13;;;0.80;;
50851;SDS011;43953;45.508;-122.806;2023-10-09T00:05:07;0.70;;;0.70;;
50851;SDS011;43953;45.508;-122.806;2023-10-09T00:05:42;2.75;;;0.90;;
50851;SDS011;43953;45.508;-122.806;2023-10-09T00:06:17;1.92;;;0.98;;
50851;SDS011;43953;45.508;-122.806;2023-10-09T00:06:54;1.35;;;0.80;;
50851;SDS011;43953;45.508;-122.806;2023-10-09T00:07:30;0.70;;;0.70;;
50851;SDS011;43953;45.508;-122.806;2023-10-09T00:08:02;1.05;;;0.60;;
50851;SDS011;43953;45.508;-122.806;2023-10-09T00:08:34;1.42;;;0.68;;
50851;SDS011;43953;45.508;-122.806;2023-10-09T00:09:08;1.63;;;0.80;;
50851;SDS011;43953;45.508;-122.806;2023-10-09T00:09:55;1.83;;;0.95;;
50851;SDS011;43953;45.508;-122.806;2023-10-09T00:10:27;1.70;;;0.90;;
50851;SDS011;43953;45.508;-122.806;2023-10-09T00:11:06;4.75;;;0.90;;
50851;SDS011;43953;45.508;-122.806;2023-10-09T00:11:51;1.83;;;0.60;;
50851;SDS011;43953;45.508;-122.806;2023-10-09T00:12:32;3.10;;;0.63;;
50851;SDS011;43953;45.508;-122.806;2023-10-09T00:13:03;4.15;;;0.90;;
50851;SDS011;43953;45.508;-122.806;2023-10-09T00:13:35;1.05;;;0.85;;
50851;SDS011;43953;45.508;-122.806;2023-10-09T00:14:08;3.00;;;1.00;;
50851;SDS011;43953;45.508;-122.806;2023-10-09T00:14:40;2.58;;;1.13;;
50851;SDS011;43953;45.508;-122.806;2023-10-09T00:15:11;2.42;;;1.15;;
50851;SDS011;43953;45.508;-122.806;2023-10-09T00:15:44;3.78;;;1.45;;
50851;SDS011;43953;45.508;-122.806;2023-10-09T00:16:23;1.50;;;1.00;;
50851;SDS011;43953;45.508;-122.806;2023-10-09T00:17:05;4.90;;;0.90;;
50851;SDS011;43953;45.508;-122.806;2023-10-09T00:17:43;2.60;;;1.25;;
50851;SDS011;43953;45.508;-122.806;2023-10-09T00:18:18;2.63;;;0.93;;
50851;SDS011;43953;45.508;-122.806;2023-10-09T00:18:59;1.85;;;1.30;;
50851;SDS011;43953;45.508;-122.806;2023-10-09T00:19:45;2.50;;;1.08;;
50851;SDS011;43953;45.508;-122.806;2023-10-09T00:20:25;2.97;;;1.10;;
50851;SDS011;43953;45.508;-122.806;2023-10-09T00:21:08;2.50;;;1.00;;
50851;SDS011;43953;45.508;-122.806;2023-10-09T00:21:47;5.43;;;1.55;;
50851;SDS011;43953;45.508;-122.806;2023-10-09T00:22:19;4.03;;;1.00;;
50851;SDS011;43953;45.508;-122.806;2023-10-09T00:22:56;2.60;;;1.20;;
50851;SDS011;43953;45.508;-122.806;2023-10-09T00:23:28;6.70;;;1.00;;
50851;SDS011;43953;45.508;-122.806;2023-10-09T00:24:02;8.63;;;1.55;;
50851;SDS011;43953;45.508;-122.806;2023-10-09T00:24:36;4.15;;;1.30;;
50851;SDS011;43953;45.508;-122.806;2023-10-09T00:25:16;6.93;;;1.50;;
50851;SDS011;43953;45.508;-122.806;2023-10-09T00:25:54;6.55;;;1.30;;
50851;SDS011;43953;45.508;-122.806;2023-10-09T00:26:43;5.50;;;1.13;;
50851;SDS011;43953;45.508;-122.806;2023-10-09T00:27:16;1.98;;;1.00;;
50851;SDS011;43953;45.508;-122.806;2023-10-09T00:27:53;4.80;;;1.38;;
50851;SDS011;43953;45.508;-122.806;2023-10-09T00:28:25;5.88;;;1.30;;
50851;SDS011;43953;45.508;-122.806;2023-10-09T00:28:57;4.90;;;1.08;;
50851;SDS011;43953;45.508;-122.806;2023-10-09T00:29:28;1.60;;;1.30;;
50851;SDS011;43953;45.508;-122.806;2023-10-09T00:30:05;5.63;;;1.30;;
50851;SDS011;43953;45.508;-122.806;2023-10-09T00:30:41;5.68;;;1.30;;
50851;SDS011;43953;45.508;-122.806;2023-10-09T00:31:16;4.10;;;1.30;;
50851;SDS011;43953;45.508;-122.806;2023-10-09T00:32:04;3.92;;;1.45;;
50851;SDS011;43953;45.508;-122.806;2023-10-09T00:32:46;3.00;;;1.33;;
50851;SDS011;43953;45.508;-122.806;2023-10-09T00:33:32;2.85;;;1.50;;
50851;SDS011;43953;45.508;-122.806;2023-10-09T00:34:04;2.70;;;1.48;;
50851;SDS011;43953;45.508;-122.806;2023-10-09T00:34:36;5.13;;;1.60;;
50851;SDS011;43953;45.508;-122.806;2023-10-09T00:35:10;3.63;;;1.60;;
50851;SDS011;43953;45.508;-122.806;2023-10-09T00:36:03;7.88;;;2.10;;
50851;SDS011;43953;45.508;-122.806;2023-10-09T00:36:41;4.78;;;1.70;;
50851;SDS011;43953;45.508;-122.806;2023-10-09T00:37:21;4.47;;;1.90;;
50851;SDS011;43953;45.508;-122.806;2023-10-09T00:37:56;4.40;;;1.90;;
50851;SDS011;43953;45.508;-122.806;2023-10-09T00:38:37;6.50;;;1.92;;
50851;SDS011;43953;45.508;-122.806;2023-10-09T00:39:21;7.88;;;2.90;;
50851;SDS011;43953;45.508;-122.806;2023-10-09T00:40:14;9.20;;;3.88;;
50851;SDS011;43953;45.508;-122.806;2023-10-09T00:41:34;11.30;;;6.75;;
50851;SDS011;43953;45.508;-122.806;2023-10-09T00:42:06;8.73;;;4.20;;
50851;SDS011;43953;45.508;-122.806;2023-10-09T00:42:38;11.07;;;4.57;;
50851;SDS011;43953;45.508;-122.806;2023-10-09T00:43:10;10.10;;;4.38;;
50851;SDS011;43953;45.508;-122.806;2023-10-09T00:43:44;11.00;;;5.85;;
50851;SDS011;43953;45.508;-122.806;2023-10-09T00:44:16;11.55;;;6.43;;
50851;SDS011;43953;45.508;-122.806;2023-10-09T00:44:47;11.07;;;6.40;;
50851;SDS011;43953;45.508;-122.806;2023-10-09T00:45:20;15.88;;;8.23;;
50851;SDS011;43953;45.508;-122.806;2023-10-09T00:45:59;16.15;;;7.85;;
50851;SDS011;43953;45.508;-122.806;2023-10-09T00:46:39;15.82;;;7.50;;
50851;SDS011;43953;45.508;-122.806;2023-10-09T00:47:14;15.38;;;7.95;;
50851;SDS011;43953;45.508;-122.806;2023-10-09T00:48:04;14.68;;;7.55;;
50851;SDS011;43953;45.508;-122.806;2023-10-09T00:48:37;16.20;;;8.77;;
50851;SDS011;43953;45.508;-122.806;2023-10-09T00:49:11;16.08;;;8.55;;
50851;SDS011;43953;45.508;-122.806;2023-10-09T00:49:51;15.82;;;8.45;;
50851;SDS011;43953;45.508;-122.806;2023-10-09T00:50:31;14.95;;;8.40;;
50851;SDS011;43953;45.508;-122.806;2023-10-09T00:51:07;15.18;;;8.95;;
50851;SDS011;43953;45.508;-122.806;2023-10-09T00:51:49;16.63;;;8.98;;
50851;SDS011;43953;45.508;-122.806;2023-10-09T00:52:31;19.27;;;10.75;;
50851;SDS011;43953;45.508;-122.806;2023-10-09T00:53:14;15.48;;;9.32;;
50851;SDS011;43953;45.508;-122.806;2023-10-09T00:53:49;16.85;;;8.52;;
50851;SDS011;43953;45.508;-122.806;2023-10-09T00:54:23;17.23;;;8.60;;
50851;SDS011;43953;45.508;-122.806;2023-10-09T00:54:59;18.98;;;9.93;;
50851;SDS011;43953;45.508;-122.806;2023-10-09T00:56:13;20.95;;;9.20;;
50851;SDS011;43953;45.508;-122.806;2023-10-09T00:56:57;16.98;;;9.43;;
50851;SDS011;43953;45.508;-122.806;2023-10-09T00:57:37;20.77;;;9.38;;
50851;SDS011;43953;45.508;-122.806;2023-10-09T00:58:11;19.00;;;9.15;;
50851;SDS011;43953;45.508;-122.806;2023-10-09T00:58:46;21.45;;;9.02;;
50851;SDS011;43953;45.508;-122.806;2023-10-09T00:59:26;16.05;;;8.30;;
50851;SDS011;43953;45.508;-122.806;2023-10-09T00:59:59;18.45;;;7.80;;
50851;SDS011;43953;45.508;-122.806;2023-10-09T01:00:31;17.42;;;8.07;;
50851;SDS011;43953;45.508;-122.806;2023-10-09T01:01:03;18.48;;;8.70;;
50851;SDS011;43953;45.508;-122.806;2023-10-09T01:01:36;18.13;;;9.60;;
50851;SDS011;43953;45.508;-122.806;2023-10-09T01:02:10;15.60;;;8.82;;
50851;SDS011;43953;45.508;-122.806;2023-10-09T01:02:42;19.00;;;7.88;;
50851;SDS011;43953;45.508;-122.806;2023-10-09T01:03:16;16.05;;;7.28;;
50851;SDS011;43953;45.508;-122.806;2023-10-09T01:03:53;13.70;;;7.20;;
50851;SDS011;43953;45.508;-122.806;2023-10-09T01:04:25;14.55;;;8.27;;
50851;SDS011;43953;45.508;-122.806;2023-10-09T01:04:59;18.13;;;7.80;;
50851;SDS011;43953;45.508;-122.806;2023-10-09T01:05:40;18.08;;;7.78;;
50851;SDS011;43953;45.508;-122.806;2023-10-09T01:06:22;18.35;;;8.13;;
50851;SDS011;43953;45.508;-122.806;2023-10-09T01:06:59;15.82;;;8.02;;
50851;SDS011;43953;45.508;-122.806;2023-10-09T01:07:47;16.02;;;7.88;;
50851;SDS011;43953;45.508;-122.806;2023-10-09T01:08:28;17.55;;;6.78;;
50851;SDS011;43953;45.508;-122.806;2023-10-09T01:09:14;17.13;;;7.75;;
50851;SDS011;43953;45.508;-122.806;2023-10-09T01:09:50;14.77;;;7.00;;
50851;SDS011;43953;45.508;-122.806;2023-10-09T01:10:25;18.13;;;6.82;;
50851;SDS011;43953;45.508;-122.806;2023-10-09T01:11:04;19.55;;;6.75;;
50851;SDS011;43953;45.508;-122.806;2023-10-09T01:11:49;13.95;;;6.40;;
50851;SDS011;43953;45.508;-122.806;2023-10-09T01:12:32;14.85;;;6.13;;
50851;SDS011;43953;45.508;-122.806;2023-10-09T01:13:04;14.82;;;5.97;;
50851;SDS011;43953;45.508;-122.806;2023-10-09T01:13:39;20.80;;;6.95;;
50851;SDS011;43953;45.508;-122.806;2023-10-09T01:14:23;17.80;;;7.60;;
50851;SDS011;43953;45.508;-122.806;2023-10-09T01:14:55;13.02;;;6.57;;
50851;SDS011;43953;45.508;-122.806;2023-10-09T01:15:27;13.25;;;6.20;;
50851;SDS011;43953;45.508;-122.806;2023-10-09T01:16:14;15.93;;;6.18;;
50851;SDS011;43953;45.508;-122.806;2023-10-09T01:16:47;14.70;;;6.15;;
50851;SDS011;43953;45.508;-122.806;2023-10-09T01:17:19;16.02;;;6.55;;
50851;SDS011;43953;45.508;-122.806;2023-10-09T01:18:06;19.88;;;7.15;;
50851;SDS011;43953;45.508;-122.806;2023-10-09T01:18:38;16.80;;;6.90;;
50851;SDS011;43953;45.508;-122.806;2023-10-09T01:19:14;18.63;;;7.30;;
50851;SDS011;43953;45.508;-122.806;2023-10-09T01:19:54;19.00;;;7.82;;
50851;SDS011;43953;45.508;-122.806;2023-10-09T01:20:27;18.38;;;7.47;;
50851;SDS011;43953;45.508;-122.806;2023-10-09T01:21:02;16.92;;;7.20;;
50851;SDS011;43953;45.508;-122.806;2023-10-09T01:21:34;23.08;;;8.32;;
50851;SDS011;43953;45.508;-122.806;2023-10-09T01:22:05;21.23;;;8.80;;
50851;SDS011;43953;45.508;-122.806;2023-10-09T01:22:47;26.88;;;9.15;;
50851;SDS011;43953;45.508;-122.806;2023-10-09T01:23:21;22.63;;;9.90;;
50851;SDS011;43953;45.508;-122.806;2023-10-09T01:23:54;20.58;;;8.95;;
50851;SDS011;43953;45.508;-122.806;2023-10-09T01:24:39;27.92;;;9.35;;
50851;SDS011;43953;45.508;-122.806;2023-10-09T01:25:11;27.83;;;9.10;;
50851;SDS011;43953;45.508;-122.806;2023-10-09T01:25:43;23.80;;;8.60;;
50851;SDS011;43953;45.508;-122.806;2023-10-09T01:26:20;31.02;;;9.23;;
50851;SDS011;43953;45.508;-122.806;2023-10-09T01:26:53;23.13;;;8.93;;
50851;SDS011;43953;45.508;-122.806;2023-10-09T01:27:28;21.48;;;8.77;;
50851;SDS011;43953;45.508;-122.806;2023-10-09T01:28:03;23.55;;;8.63;;
50851;SDS011;43953;45.508;-122.806;2023-10-09T01:28:35;21.48;;;8.07;;
50851;SDS011;43953;45.508;-122.806;2023-10-09T01:29:07;27.48;;;8.88;;
50851;SDS011;43953;45.508;-122.806;2023-10-09T01:29:45;24.00;;;9.02;;
50851;SDS011;43953;45.508;-122.806;2023-10-09T01:30:17;27.73;;;9.68;;
50851;SDS011;43953;45.508;-122.806;2023-10-09T01:30:48;30.73;;;9.05;;
50851;SDS011;43953;45.508;-122.806;2023-10-09T01:31:22;27.48;;;8.65;;
50851;SDS011;43953;45.508;-122.806;2023-10-09T01:31:56;23.20;;;8.77;;
50851;SDS011;43953;45.508;-122.806;2023-10-09T01:32:35;24.13;;;8.30;;
50851;SDS011;43953;45.508;-122.806;2023-10-09T01:33:07;25.25;;;7.97;;
50851;SDS011;43953;45.508;-122.806;2023-10-09T01:33:57;31.67;;;9.40;;
50851;SDS011;43953;45.508;-122.806;2023-10-09T01:34:31;19.45;;;8.27;;
50851;SDS011;43953;45.508;-122.806;2023-10-09T01:35:12;26.75;;;8.73;;
50851;SDS011;43953;45.508;-122.806;2023-10-09T01:35:51;18.85;;;7.75;;
50851;SDS011;43953;45.508;-122.806;2023-10-09T01:36:29;15.05;;;8.50;;
50851;SDS011;43953;45.508;-122.806;2023-10-09T01:37:03;24.65;;;10.05;;
50851;SDS011;43953;45.508;-122.806;2023-10-09T01:37:59;27.08;;;10.50;;
50851;SDS011;43953;45.508;-122.806;2023-10-09T01:38:31;23.90;;;10.20;;
50851;SDS011;43953;45.508;-122.806;2023-10-09T01:39:11;23.70;;;11.65;;
50851;SDS011;43953;45.508;-122.806;2023-10-09T01:39:59;18.10;;;10.00;;
50851;SDS011;43953;45.508;-122.806;2023-10-09T01:40:50;19.63;;;9.95;;
50851;SDS011;43953;45.508;-122.806;2023-10-09T01:41:24;20.88;;;10.27;;
50851;SDS011;43953;45.508;-122.806;2023-10-09T01:41:56;26.83;;;10.20;;
50851;SDS011;43953;45.508;-122.806;2023-10-09T01:42:29;20.92;;;11.23;;
50851;SDS011;43953;45.508;-122.806;2023-10-09T01:43:01;20.55;;;10.93;;
50851;SDS011;43953;45.508;-122.806;2023-10-09T01:43:34;19.17;;;10.75;;
50851;SDS011;43953;45.508;-122.806;2023-10-09T01:44:06;20.95;;;10.65;;
50851;SDS011;43953;45.508;-122.806;2023-10-09T01:44:43;23.98;;;11.55;;
50851;SDS011;43953;45.508;-122.806;2023-10-09T01:45:14;15.52;;;10.27;;
50851;SDS011;43953;45.508;-122.806;2023-10-09T01:45:46;20.33;;;10.57;;
50851;SDS011;43953;45.508;-122.806;2023-10-09T01:46:18;19.80;;;11.35;;
50851;SDS011;43953;45.508;-122.806;2023-10-09T01:46:50;20.10;;;10.18;;
50851;SDS011;43953;45.508;-122.806;2023-10-09T01:47:25;24.02;;;11.05;;
50851;SDS011;43953;45.508;-122.806;2023-10-09T01:48:02;21.35;;;10.15;;
50851;SDS011;43953;45.508;-122.806;2023-10-09T01:48:36;19.88;;;10.52;;
50851;SDS011;43953;45.508;-122.806;2023-10-09T01:49:11;18.42;;;10.25;;
50851;SDS011;43953;45.508;-122.806;2023-10-09T01:49:48;18.10;;;10.75;;
50851;SDS011;43953;45.508;-122.806;2023-10-09T01:50:20;20.60;;;10.68;;
50851;SDS011;43953;45.508;-122.806;2023-10-09T01:50:53;18.80;;;10.48;;
50851;SDS011;43953;45.508;-122.806;2023-10-09T01:51:24;17.98;;;10.35;;
50851;SDS011;43953;45.508;-122.806;2023-10-09T01:52:04;14.10;;;10.32;;
50851;SDS011;43953;45.508;-122.806;2023-10-09T01:52:40;20.30;;;9.57;;
50851;SDS011;43953;45.508;-122.806;2023-10-09T01:53:13;18.08;;;8.95;;
50851;SDS011;43953;45.508;-122.806;2023-10-09T01:53:48;16.20;;;9.57;;
50851;SDS011;43953;45.508;-122.806;2023-10-09T01:54:27;17.30;;;8.70;;
50851;SDS011;43953;45.508;-122.806;2023-10-09T01:55:07;14.57;;;7.78;;
50851;SDS011;43953;45.508;-122.806;2023-10-09T01:55:43;15.60;;;8.27;;
50851;SDS011;43953;45.508;-122.806;2023-10-09T01:56:16;14.35;;;8.40;;
50851;SDS011;43953;45.508;-122.806;2023-10-09T01:56:48;15.02;;;8.02;;
50851;SDS011;43953;45.508;-122.806;2023-10-09T01:57:20;13.52;;;7.93;;
50851;SDS011;43953;45.508;-122.806;2023-10-09T01:57:55;17.75;;;7.65;;
50851;SDS011;43953;45.508;-122.806;2023-10-09T01:58:45;17.70;;;8.63;;
50851;SDS011;43953;45.508;-122.806;2023-10-09T01:59:18;15.50;;;7.25;;
50851;SDS011;43953;45.508;-122.806;2023-10-09T01:59:50;11.27;;;7.50;;
50851;SDS011;43953;45.508;-122.806;2023-10-09T02:00:25;14.40;;;6.78;;
50851;SDS011;43953;45.508;-122.806;2023-10-09T02:00:59;14.85;;;8.23;;
50851;SDS011;43953;45.508;-122.806;2023-10-09T02:01:35;13.57;;;7.50;;
50851;SDS011;43953;45.508;-122.806;2023-10-09T02:02:11;13.70;;;7.55;;
50851;SDS011;43953;45.508;-122.806;2023-10-09T02:03:07;13.00;;;7.28;;
50851;SDS011;43953;45.508;-122.806;2023-10-09T02:03:43;18.20;;;8.00;;
50851;SDS011;43953;45.508;-122.806;2023-10-09T02:04:16;10.35;;;6.70;;
50851;SDS011;43953;45.508;-122.806;2023-10-09T02:04:48;11.57;;;6.63;;
50851;SDS011;43953;45.508;-122.806;2023-10-09T02:05:19;12.05;;;7.40;;
50851;SDS011;43953;45.508;-122.806;2023-10-09T02:05:51;12.43;;;6.78;;
50851;SDS011;43953;45.508;-122.806;2023-10-09T02:06:24;14.55;;;7.20;;
50851;SDS011;43953;45.508;-122.806;2023-10-09T02:06:57;17.25;;;7.55;;
50851;SDS011;43953;45.508;-122.806;2023-10-09T02:07:29;10.48;;;6.88;;
50851;SDS011;43953;45.508;-122.806;2023-10-09T02:08:10;9.50;;;6.60;;
50851;SDS011;43953;45.508;-122.806;2023-10-09T02:08:44;14.25;;;7.20;;
50851;SDS011;43953;45.508;-122.806;2023-10-09T02:09:20;11.25;;;6.90;;
50851;SDS011;43953;45.508;-122.806;2023-10-09T02:09:59;10.18;;;6.97;;
50851;SDS011;43953;45.508;-122.806;2023-10-09T02:10:31;12.88;;;7.28;;
50851;SDS011;43953;45.508;-122.806;2023-10-09T02:11:03;12.70;;;6.97;;
50851;SDS011;43953;45.508;-122.806;2023-10-09T02:11:35;13.50;;;6.90;;
50851;SDS011;43953;45.508;-122.806;2023-10-09T02:12:07;11.80;;;7.03;;
50851;SDS011;43953;45.508;-122.806;2023-10-09T02:12:39;14.25;;;7.00;;
50851;SDS011;43953;45.508;-122.806;2023-10-09T02:13:11;14.60;;;6.60;;
50851;SDS011;43953;45.508;-122.806;2023-10-09T02:13:47;10.88;;;6.30;;
50851;SDS011;43953;45.508;-122.806;2023-10-09T02:14:24;12.23;;;6.65;;
50851;SDS011;43953;45.508;-122.806;2023-10-09T02:14:56;10.23;;;6.32;;
50851;SDS011;43953;45.508;-122.806;2023-10-09T02:15:28;10.95;;;6.40;;
50851;SDS011;43953;45.508;-122.806;2023-10-09T02:16:15;11.35;;;6.45;;
50851;SDS011;43953;45.508;-122.806;2023-10-09T02:16:58;14.65;;;6.90;;
50851;SDS011;43953;45.508;-122.806;2023-10-09T02:17:33;8.38;;;6.15;;
50851;SDS011;43953;45.508;-122.806;2023-10-09T02:18:05;9.30;;;6.28;;
50851;SDS011;43953;45.508;-122.806;2023-10-09T02:18:57;10.77;;;6.38;;
50851;SDS011;43953;45.508;-122.806;2023-10-09T02:19:29;11.57;;;6.10;;
50851;SDS011;43953;45.508;-122.806;2023-10-09T02:20:13;11.85;;;6.55;;
50851;SDS011;43953;45.508;-122.806;2023-10-09T02:20:49;11.65;;;7.15;;
50851;SDS011;43953;45.508;-122.806;2023-10-09T02:21:36;11.85;;;6.28;;
50851;SDS011;43953;45.508;-122.806;2023-10-09T02:22:14;9.82;;;6.60;;
50851;SDS011;43953;45.508;-122.806;2023-10-09T02:22:46;7.97;;;6.45;;
50851;SDS011;43953;45.508;-122.806;2023-10-09T02:23:18;10.70;;;6.60;;
50851;SDS011;43953;45.508;-122.806;2023-10-09T02:23:55;14.23;;;6.70;;
50851;SDS011;43953;45.508;-122.806;2023-10-09T02:24:28;11.10;;;6.57;;
50851;SDS011;43953;45.508;-122.806;2023-10-09T02:25:25;11.73;;;6.10;;
50851;SDS011;43953;45.508;-122.806;2023-10-09T02:26:05;12.80;;;6.43;;
50851;SDS011;43953;45.508;-122.806;2023-10-09T02:26:40;9.43;;;6.75;;
50851;SDS011;43953;45.508;-122.806;2023-10-09T02:27:24;10.25;;;6.28;;
50851;SDS011;43953;45.508;-122.806;2023-10-09T02:28:12;13.13;;;6.22;;
50851;SDS011;43953;45.508;-122.806;2023-10-09T02:28:48;18.08;;;6.68;;
50851;SDS011;43953;45.508;-122.806;2023-10-09T02:29:55;7.97;;;6.38;;
50851;SDS011;43953;45.508;-122.806;2023-10-09T02:30:29;11.82;;;6.90;;
50851;SDS011;43953;45.508;-122.806;2023-10-09T02:31:01;10.02;;;6.47;;
50851;SDS011;43953;45.508;-122.806;2023-10-09T02:31:43;13.73;;;6.85;;
50851;SDS011;43953;45.508;-122.806;2023-10-09T02:32:17;11.95;;;6.78;;
50851;SDS011;43953;45.508;-122.806;2023-10-09T02:32:56;10.60;;;6.50;;
50851;SDS011;43953;45.508;-122.806;2023-10-09T02:33:40;11.80;;;6.45;;
50851;SDS011;43953;45.508;-122.806;2023-10-09T02:34:12;10.32;;;6.53;;
50851;SDS011;43953;45.508;-122.806;2023-10-09T02:34:46;12.27;;;6.72;;
50851;SDS011;43953;45.508;-122.806;2023-10-09T02:35:18;12.98;;;6.75;;
50851;SDS011;43953;45.508;-122.806;2023-10-09T02:36:07;9.68;;;6.65;;
50851;SDS011;43953;45.508;-122.806;2023-10-09T02:36:40;10.32;;;6.45;;
50851;SDS011;43953;45.508;-122.806;2023-10-09T02:37:13;11.07;;;6.15;;
50851;SDS011;43953;45.508;-122.806;2023-10-09T02:37:45;11.68;;;6.43;;
50851;SDS011;43953;45.508;-122.806;2023-10-09T02:38:17;11.18;;;6.40;;
50851;SDS011;43953;45.508;-122.806;2023-10-09T02:38:53;11.80;;;6.78;;
50851;SDS011;43953;45.508;-122.806;2023-10-09T02:39:27;11.00;;;6.60;;
50851;SDS011;43953;45.508;-122.806;2023-10-09T02:39:59;11.57;;;6.32;;
50851;SDS011;43953;45.508;-122.806;2023-10-09T02:40:38;10.38;;;6.45;;
50851;SDS011;43953;45.508;-122.806;2023-10-09T02:41:12;10.40;;;6.25;;
50851;SDS011;43953;45.508;-122.806;2023-10-09T02:41:44;8.95;;;6.80;;
50851;SDS011;43953;45.508;-122.806;2023-10-09T02:42:20;10.35;;;6.55;;
50851;SDS011;43953;45.508;-122.806;2023-10-09T02:42:57;13.60;;;6.70;;
50851;SDS011;43953;45.508;-122.806;2023-10-09T02:43:30;13.10;;;7.00;;
50851;SDS011;43953;45.508;-122.806;2023-10-09T02:44:15;9.25;;;7.18;;
50851;SDS011;43953;45.508;-122.806;2023-10-09T02:44:48;8.20;;;6.40;;
50851;SDS011;43953;45.508;-122.806;2023-10-09T02:45:23;15.95;;;7.00;;
50851;SDS011;43953;45.508;-122.806;2023-10-09T02:45:55;10.30;;;7.00;;
50851;SDS011;43953;45.508;-122.806;2023-10-09T02:46:27;9.35;;;6.90;;
50851;SDS011;43953;45.508;-122.806;2023-10-09T02:47:01;7.78;;;7.05;;
50851;SDS011;43953;45.508;-122.806;2023-10-09T02:47:36;7.88;;;7.03;;
50851;SDS011;43953;45.508;-122.806;2023-10-09T02:48:10;8.00;;;7.20;;
50851;SDS011;43953;45.508;-122.806;2023-10-09T02:48:44;9.38;;;7.40;;
50851;SDS011;43953;45.508;-122.806;2023-10-09T02:49:23;8.52;;;6.93;;
50851;SDS011;43953;45.508;-122.806;2023-10-09T02:49:57;10.27;;;7.43;;
50851;SDS011;43953;45.508;-122.806;2023-10-09T02:50:37;13.23;;;7.32;;
50851;SDS011;43953;45.508;-122.806;2023-10-09T02:51:09;12.73;;;7.55;;
50851;SDS011;43953;45.508;-122.806;2023-10-09T02:51:48;10.48;;;7.15;;
50851;SDS011;43953;45.508;-122.806;2023-10-09T02:52:24;16.92;;;7.90;;
50851;SDS011;43953;45.508;-122.806;2023-10-09T02:52:56;16.42;;;7.82;;
50851;SDS011;43953;45.508;-122.806;2023-10-09T02:53:31;13.27;;;7.45;;
50851;SDS011;43953;45.508;-122.806;2023-10-09T02:54:05;12.20;;;7.45;;
50851;SDS011;43953;45.508;-122.806;2023-10-09T02:54:49;10.60;;;7.38;;
50851;SDS011;43953;45.508;-122.806;2023-10-09T02:55:30;12.73;;;8.15;;
50851;SDS011;43953;45.508;-122.806;2023-10-09T02:56:01;14.95;;;7.43;;
50851;SDS011;43953;45.508;-122.806;2023-10-09T02:56:46;9.88;;;7.22;;
50851;SDS011;43953;45.508;-122.806;2023-10-09T02:57:26;16.58;;;7.13;;
50851;SDS011;43953;45.508;-122.806;2023-10-09T02:58:07;16.08;;;7.63;;
50851;SDS011;43953;45.508;-122.806;2023-10-09T02:58:45;11.30;;;7.85;;
50851;SDS011;43953;45.508;-122.806;2023-10-09T02:59:19;11.77;;;7.57;;
50851;SDS011;43953;45.508;-122.806;2023-10-09T02:59:52;13.00;;;7.72;;
50851;SDS011;43953;45.508;-122.806;2023-10-09T03:00:24;18.10;;;7.82;;
50851;SDS011;43953;45.508;-122.806;2023-10-09T03:01:02;16.48;;;7.40;;
50851;SDS011;43953;45.508;-122.806;2023-10-09T03:01:34;10.80;;;6.85;;
50851;SDS011;43953;45.508;-122.806;2023-10-09T03:02:08;13.23;;;7.00;;
50851;SDS011;43953;45.508;-122.806;2023-10-09T03:02:39;9.50;;;7.03;;
50851;SDS011;43953;45.508;-122.806;2023-10-09T03:03:12;12.02;;;6.95;;
50851;SDS011;43953;45.508;-122.806;2023-10-09T03:03:47;10.68;;;7.22;;
50851;SDS011;43953;45.508;-122.806;2023-10-09T03:04:19;14.68;;;7.38;;
50851;SDS011;43953;45.508;-122.806;2023-10-09T03:04:54;12.88;;;7.40;;
50851;SDS011;43953;45.508;-122.806;2023-10-09T03:05:26;12.05;;;7.50;;
50851;SDS011;43953;45.508;-122.806;2023-10-09T03:05:59;10.80;;;6.53;;
50851;SDS011;43953;45.508;-122.806;2023-10-09T03:06:35;12.43;;;6.78;;
50851;SDS011;43953;45.508;-122.806;2023-10-09T03:07:14;10.88;;;6.65;;
50851;SDS011;43953;45.508;-122.806;2023-10-09T03:07:45;10.85;;;6.97;;
50851;SDS011;43953;45.508;-122.806;2023-10-09T03:08:19;10.50;;;6.72;;
50851;SDS011;43953;45.508;-122.806;2023-10-09T03:08:51;10.23;;;6.68;;
50851;SDS011;43953;45.508;-122.806;2023-10-09T03:09:26;11.85;;;6.28;;
50851;SDS011;43953;45.508;-122.806;2023-10-09T03:09:58;8.23;;;5.85;;
50851;SDS011;43953;45.508;-122.806;2023-10-09T03:10:30;9.25;;;6.35;;
50851;SDS011;43953;45.508;-122.806;2023-10-09T03:11:04;11.88;;;6.70;;
50851;SDS011;43953;45.508;-122.806;2023-10-09T03:11:36;13.73;;;7.25;;
50851;SDS011;43953;45.508;-122.806;2023-10-09T03:12:08;13.07;;;6.00;;
50851;SDS011;43953;45.508;-122.806;2023-10-09T03:12:43;10.18;;;6.68;;
50851;SDS011;43953;45.508;-122.806;2023-10-09T03:13:15;13.43;;;6.32;;
50851;SDS011;43953;45.508;-122.806;2023-10-09T03:13:50;11.48;;;6.18;;
50851;SDS011;43953;45.508;-122.806;2023-10-09T03:14:23;11.68;;;6.00;;
50851;SDS011;43953;45.508;-122.806;2023-10-09T03:14:59;10.95;;;6.25;;
50851;SDS011;43953;45.508;-122.806;2023-10-09T03:15:32;9.50;;;6.13;;
50851;SDS011;43953;45.508;-122.806;2023-10-09T03:16:06;10.05;;;6.68;;
50851;SDS011;43953;45.508;-122.806;2023-10-09T03:16:45;8.07;;;6.63;;
50851;SDS011;43953;45.508;-122.806;2023-10-09T03:17:18;12.55;;;6.30;;
50851;SDS011;43953;45.508;-122.806;2023-10-09T03:17:50;14.50;;;6.72;;
50851;SDS011;43953;45.508;-122.806;2023-10-09T03:18:22;12.00;;;6.38;;
50851;SDS011;43953;45.508;-122.806;2023-10-09T03:18:54;11.82;;;6.10;;
50851;SDS011;43953;45.508;-122.806;2023-10-09T03:19:28;10.25;;;6.00;;
50851;SDS011;43953;45.508;-122.806;2023-10-09T03:20:04;10.25;;;6.18;;
50851;SDS011;43953;45.508;-122.806;2023-10-09T03:20:43;9.95;;;6.47;;
50851;SDS011;43953;45.508;-122.806;2023-10-09T03:21:15;10.57;;;6.30;;
50851;SDS011;43953;45.508;-122.806;2023-10-09T03:21:47;8.00;;;5.88;;
50851;SDS011;43953;45.508;-122.806;2023-10-09T03:22:19;9.63;;;5.80;;
50851;SDS011;43953;45.508;-122.806;2023-10-09T03:22:51;11.35;;;5.97;;
50851;SDS011;43953;45.508;-122.806;2023-10-09T03:23:24;11.77;;;6.65;;
50851;SDS011;43953;45.508;-122.806;2023-10-09T03:23:56;11.00;;;6.10;;
50851;SDS011;43953;45.508;-122.806;2023-10-09T03:24:28;11.05;;;6.10;;
50851;SDS011;43953;45.508;-122.806;2023-10-09T03:25:01;7.70;;;5.72;;
50851;SDS011;43953;45.508;-122.806;2023-10-09T03:25:33;7.95;;;5.60;;
50851;SDS011;43953;45.508;-122.806;2023-10-09T03:26:06;10.40;;;5.75;;
50851;SDS011;43953;45.508;-122.806;2023-10-09T03:26:39;11.18;;;6.60;;
50851;SDS011;43953;45.508;-122.806;2023-10-09T03:27:10;10.45;;;6.72;;
50851;SDS011;43953;45.508;-122.806;2023-10-09T03:27:44;7.95;;;6.05;;
50851;SDS011;43953;45.508;-122.806;2023-10-09T03:28:16;10.13;;;5.72;;